Time;durP1;ratioP1;P1;durP2;ratioP2;P2;SDS_P1;SDS_P2;PMS_P1;PMS_P2;Temp;Humidity;BMP_temperature;BMP_pressure;BME280_temperature;BME280_humidity;BME280_pressure;Samples;Min_cycle;Max_cycle;Signal;HPM_P1;HPM_P2
2023/09/22 00:01:52;;;;;;;0.50;0.40;;;;;;;15.36;100.00;97185.91;4135200;28;20219;-45
2023/09/22 00:03:55;;;;;;;0.40;0.40;;;;;;;15.32;100.00;97184.91;4149879;28;20307;-45
2023/09/22 00:05:57;;;;;;;0.40;0.40;;;;;;;15.32;100.00;97190.41;4134427;28;20229;-46
2023/09/22 00:07:59;;;;;;;0.47;0.43;;;;;;;15.15;100.00;97200.44;4136477;28;20257;-46
2023/09/22 00:10:01;;;;;;;0.93;0.93;;;;;;;15.13;100.00;97209.03;4142262;28;20695;-44
2023/09/22 00:12:03;;;;;;;0.30;0.30;;;;;;;15.12;100.00;97215.66;4134669;28;20224;-45
2023/09/22 00:14:06;;;;;;;2.60;0.43;;;;;;;15.16;100.00;97208.41;4132377;28;20210;-45
2023/09/22 00:16:09;;;;;;;0.38;0.38;;;;;;;15.10;100.00;97225.38;4144279;28;20660;-47
2023/09/22 00:18:11;;;;;;;0.47;0.45;;;;;;;15.07;100.00;97215.78;4151465;28;21026;-45
2023/09/22 00:20:15;;;;;;;0.38;0.38;;;;;;;15.21;100.00;97233.09;4148295;28;20215;-47
2023/09/22 00:22:16;;;;;;;1.25;0.75;;;;;;;15.26;100.00;97219.19;4135495;28;20210;-45
2023/09/22 00:24:19;;;;;;;0.52;0.45;;;;;;;15.16;100.00;97224.94;4130959;28;20214;-46
2023/09/22 00:26:21;;;;;;;0.43;0.43;;;;;;;15.17;100.00;97232.06;4132039;28;20201;-44
2023/09/22 00:28:23;;;;;;;0.70;0.50;;;;;;;15.20;100.00;97231.47;4117549;28;20732;-46
2023/09/22 00:30:26;;;;;;;0.50;0.50;;;;;;;15.18;100.00;97233.72;4135179;28;20212;-45
2023/09/22 00:32:28;;;;;;;0.32;0.30;;;;;;;15.10;100.00;97230.88;4142967;28;20205;-45
2023/09/22 00:34:32;;;;;;;0.50;0.50;;;;;;;15.10;100.00;97226.16;4143315;28;20320;-45
2023/09/22 00:36:34;;;;;;;0.30;0.30;;;;;;;15.01;100.00;97227.22;4127507;28;20201;-45
2023/09/22 00:38:36;;;;;;;0.40;0.40;;;;;;;14.95;100.00;97222.94;4135600;28;20217;-45
2023/09/22 00:40:38;;;;;;;0.38;0.38;;;;;;;14.87;100.00;97227.25;4134182;28;20225;-45
2023/09/22 00:42:39;;;;;;;0.68;0.45;;;;;;;14.88;100.00;97219.78;4146636;28;20248;-46
2023/09/22 00:44:41;;;;;;;0.30;0.30;;;;;;;14.89;100.00;97215.94;4147415;28;20823;-45
2023/09/22 00:46:43;;;;;;;0.63;0.40;;;;;;;14.87;100.00;97219.00;4131025;28;20214;-46
2023/09/22 00:48:45;;;;;;;0.40;0.40;;;;;;;14.96;100.00;97213.56;4132866;28;20731;-45
2023/09/22 00:50:47;;;;;;;0.93;0.57;;;;;;;14.99;100.00;97222.03;4133142;28;20217;-45
2023/09/22 00:52:49;;;;;;;0.65;0.50;;;;;;;14.97;100.00;97228.97;4130054;28;20213;-46
2023/09/22 00:54:52;;;;;;;0.47;0.40;;;;;;;15.00;100.00;97236.59;4147784;28;21581;-46
2023/09/22 00:56:53;;;;;;;0.47;0.47;;;;;;;14.85;100.00;97235.03;4135002;28;20213;-45
2023/09/22 00:58:55;;;;;;;0.40;0.40;;;;;;;14.77;100.00;97234.91;4129651;28;20325;-46
2023/09/22 01:00:58;;;;;;;0.50;0.50;;;;;;;14.77;100.00;97241.22;4128392;28;20217;-45
2023/09/22 01:03:01;;;;;;;0.50;0.50;;;;;;;14.69;100.00;97239.19;4143622;28;20726;-46
2023/09/22 01:05:03;;;;;;;0.65;0.65;;;;;;;14.76;100.00;97236.84;4131730;28;20232;-45
2023/09/22 01:07:05;;;;;;;0.30;0.30;;;;;;;14.78;100.00;97234.63;4137384;28;20215;-46
2023/09/22 01:09:07;;;;;;;0.50;0.50;;;;;;;14.82;100.00;97230.09;4132179;28;20727;-45
2023/09/22 01:11:08;;;;;;;0.40;0.40;;;;;;;14.87;100.00;97226.44;4136349;28;20209;-46
2023/09/22 01:13:10;;;;;;;0.47;0.47;;;;;;;14.96;100.00;97219.88;4120165;28;20214;-44
2023/09/22 01:15:12;;;;;;;0.80;0.60;;;;;;;14.90;100.00;97212.06;4136446;28;20230;-45
2023/09/22 01:17:14;;;;;;;0.80;0.70;;;;;;;14.93;100.00;97216.94;4133355;28;20217;-45
2023/09/22 01:19:16;;;;;;;0.40;0.40;;;;;;;14.93;100.00;97223.25;4148163;28;20209;-45
2023/09/22 01:21:19;;;;;;;0.50;0.50;;;;;;;14.78;100.00;97223.59;4148514;28;20606;-45
2023/09/22 01:23:21;;;;;;;0.98;0.65;;;;;;;14.69;100.00;97228.19;4133843;28;20210;-47
2023/09/22 01:25:22;;;;;;;0.40;0.40;;;;;;;14.53;100.00;97226.06;4147405;28;20623;-45
2023/09/22 01:27:24;;;;;;;0.40;0.40;;;;;;;14.56;100.00;97219.97;4134189;28;20275;-46
2023/09/22 01:29:26;;;;;;;0.82;0.40;;;;;;;14.55;100.00;97212.78;4150704;28;20664;-46
2023/09/22 01:31:28;;;;;;;0.85;0.45;;;;;;;14.61;100.00;97217.91;4149800;28;20208;-46
2023/09/22 01:33:29;;;;;;;0.40;0.40;;;;;;;14.55;100.00;97219.13;4149817;28;20269;-45
2023/09/22 01:35:35;;;;;;;0.57;0.57;;;;;;;14.58;100.00;97224.00;4131740;28;20230;-47
2023/09/22 01:37:43;;;;;;;0.85;0.50;;;;;;;14.63;100.00;97207.38;4149996;28;20551;-45
2023/09/22 01:39:45;;;;;;;0.50;0.50;;;;;;;14.52;100.00;97214.25;4149121;28;20224;-45
2023/09/22 01:41:47;;;;;;;0.50;0.50;;;;;;;14.39;100.00;97220.56;4133517;28;20942;-45
2023/09/22 01:43:49;;;;;;;0.60;0.60;;;;;;;14.32;100.00;97217.41;4132108;28;20579;-45
2023/09/22 01:45:51;;;;;;;0.55;0.50;;;;;;;14.38;100.00;97220.88;4148435;28;20631;-45
2023/09/22 01:47:53;;;;;;;0.38;0.38;;;;;;;14.42;100.00;97219.94;4133711;28;20275;-47
2023/09/22 01:49:54;;;;;;;0.65;0.55;;;;;;;14.45;100.00;97219.34;4115606;28;20269;-46
2023/09/22 01:51:56;;;;;;;0.50;0.50;;;;;;;14.42;100.00;97213.66;4149384;28;20241;-45
2023/09/22 01:53:58;;;;;;;0.50;0.50;;;;;;;14.43;100.00;97204.25;4115411;28;20678;-46
2023/09/22 01:56:02;;;;;;;0.73;0.60;;;;;;;14.56;100.00;97195.97;4131393;28;20919;-46
2023/09/22 01:58:04;;;;;;;0.90;0.45;;;;;;;14.49;100.00;97192.03;4133757;28;20210;-46
2023/09/22 02:00:07;;;;;;;0.40;0.40;;;;;;;14.52;100.00;97192.22;4115778;28;20207;-46
2023/09/22 02:02:09;;;;;;;1.23;0.65;;;;;;;14.47;100.00;97186.81;4116832;28;20705;-46
2023/09/22 02:04:11;;;;;;;0.40;0.40;;;;;;;14.39;100.00;97182.03;4148425;28;20204;-46
2023/09/22 02:06:13;;;;;;;1.15;0.68;;;;;;;14.45;100.00;97180.81;4121456;28;20649;-45
2023/09/22 02:08:15;;;;;;;0.93;0.93;;;;;;;14.39;100.00;97175.72;4123721;28;20659;-45
2023/09/22 02:10:16;;;;;;;0.70;0.50;;;;;;;14.47;100.00;97167.56;4123128;28;20214;-47
2023/09/22 02:12:18;;;;;;;0.40;0.40;;;;;;;14.48;100.00;97168.34;4117936;28;20210;-46
2023/09/22 02:14:20;;;;;;;1.23;0.88;;;;;;;14.47;100.00;97173.06;4120605;28;20249;-46
2023/09/22 02:16:21;;;;;;;0.57;0.57;;;;;;;14.38;100.00;97180.38;4150356;28;20735;-45
2023/09/22 02:18:23;;;;;;;1.02;0.60;;;;;;;14.34;100.00;97173.06;4123887;28;20660;-46
2023/09/22 02:20:25;;;;;;;0.50;0.50;;;;;;;14.21;100.00;97166.44;4120678;28;20713;-46
2023/09/22 02:22:27;;;;;;;0.45;0.45;;;;;;;14.22;100.00;97176.31;4124150;28;20209;-46
2023/09/22 02:24:29;;;;;;;0.40;0.40;;;;;;;14.21;100.00;97182.97;4121687;28;20717;-47
2023/09/22 02:26:31;;;;;;;0.50;0.50;;;;;;;14.13;100.00;97186.38;4129398;28;20316;-44
2023/09/22 02:28:32;;;;;;;0.60;0.60;;;;;;;14.03;100.00;97183.81;4121454;28;20210;-45
2023/09/22 02:30:37;;;;;;;0.50;0.50;;;;;;;14.12;100.00;97187.50;4135895;28;20213;-46
2023/09/22 02:32:41;;;;;;;0.60;0.60;;;;;;;14.17;100.00;97173.63;4119357;28;20577;-46
2023/09/22 02:34:43;;;;;;;0.50;0.50;;;;;;;14.19;100.00;97170.63;4116407;28;20329;-47
2023/09/22 02:36:44;;;;;;;0.60;0.60;;;;;;;14.10;100.00;97175.97;4118365;28;20222;-46
2023/09/22 02:38:46;;;;;;;0.50;0.50;;;;;;;14.08;100.00;97169.97;4154531;28;20204;-46
2023/09/22 02:40:49;;;;;;;0.50;0.50;;;;;;;14.12;100.00;97168.25;4133787;28;20272;-45
2023/09/22 02:42:50;;;;;;;1.77;0.50;;;;;;;14.08;100.00;97150.72;4121880;28;20601;-46
2023/09/22 02:44:53;;;;;;;0.93;0.93;;;;;;;14.20;100.00;97162.06;4135285;28;20260;-46
2023/09/22 02:46:55;;;;;;;0.40;0.40;;;;;;;14.13;100.00;97183.63;4118437;28;20746;-47
2023/09/22 02:48:57;;;;;;;0.47;0.47;;;;;;;14.17;100.00;97195.66;4120565;28;20206;-46
2023/09/22 02:50:59;;;;;;;0.63;0.63;;;;;;;14.02;100.00;97186.88;4150075;28;20220;-46
2023/09/22 02:53:03;;;;;;;1.17;1.17;;;;;;;13.99;100.00;97196.56;4119794;28;20210;-45
2023/09/22 02:55:07;;;;;;;0.50;0.50;;;;;;;13.97;100.00;97207.03;4136364;28;20650;-45
2023/09/22 02:57:09;;;;;;;0.40;0.40;;;;;;;14.05;100.00;97211.03;4151979;28;20316;-47
2023/09/22 02:59:11;;;;;;;0.40;0.40;;;;;;;14.14;100.00;97218.28;4118134;28;20214;-46
2023/09/22 03:01:14;;;;;;;0.50;0.50;;;;;;;14.12;100.00;97225.19;4116371;28;20214;-47
2023/09/22 03:03:16;;;;;;;0.60;0.60;;;;;;;14.24;100.00;97206.28;4119915;28;20923;-45
2023/09/22 03:05:18;;;;;;;0.40;0.40;;;;;;;14.16;100.00;97185.75;4135253;28;20221;-47
2023/09/22 03:07:20;;;;;;;1.25;0.63;;;;;;;14.21;100.00;97182.13;4122726;28;20309;-47
2023/09/22 03:09:22;;;;;;;0.30;0.30;;;;;;;14.22;100.00;97181.03;4121184;28;20722;-45
2023/09/22 03:11:24;;;;;;;1.17;0.40;;;;;;;14.29;100.00;97170.44;4122636;28;20206;-47
2023/09/22 03:13:26;;;;;;;1.23;1.00;;;;;;;14.23;100.00;97180.69;4150199;28;20209;-45
2023/09/22 03:15:27;;;;;;;0.40;0.40;;;;;;;14.24;100.00;97176.03;4134254;28;20228;-45
2023/09/22 03:17:29;;;;;;;0.57;0.57;;;;;;;14.28;100.00;97186.13;4134432;28;20791;-47
2023/09/22 03:19:32;;;;;;;0.40;0.40;;;;;;;14.27;100.00;97178.16;4133775;28;20673;-45
2023/09/22 03:21:35;;;;;;;0.50;0.50;;;;;;;14.27;100.00;97172.66;4133972;28;20212;-45
2023/09/22 03:23:37;;;;;;;0.70;0.70;;;;;;;14.23;100.00;97168.91;4152477;28;20640;-45
2023/09/22 03:25:39;;;;;;;0.40;0.40;;;;;;;14.27;100.00;97162.47;4116109;28;20689;-47
2023/09/22 03:27:41;;;;;;;0.63;0.50;;;;;;;14.37;100.00;97166.94;4119628;28;20217;-46
2023/09/22 03:29:43;;;;;;;0.40;0.40;;;;;;;14.31;100.00;97185.50;4122788;28;20668;-46
2023/09/22 03:31:45;;;;;;;0.82;0.70;;;;;;;14.27;100.00;97178.97;4119600;28;20228;-45
2023/09/22 03:33:47;;;;;;;0.40;0.40;;;;;;;14.29;100.00;97185.00;4089834;28;20211;-48
2023/09/22 03:35:48;;;;;;;0.63;0.45;;;;;;;14.34;100.00;97201.41;4119384;28;20265;-45
2023/09/22 03:37:52;;;;;;;0.40;0.40;;;;;;;14.31;100.00;97213.00;4117724;28;20689;-45
2023/09/22 03:39:57;;;;;;;0.40;0.40;;;;;;;14.34;100.00;97239.94;4132108;28;20221;-45
2023/09/22 03:41:59;;;;;;;0.40;0.40;;;;;;;14.40;100.00;97235.13;4132221;28;20213;-47
2023/09/22 03:44:01;;;;;;;0.80;0.50;;;;;;;14.30;100.00;97243.59;4132236;28;20210;-46
2023/09/22 03:46:03;;;;;;;1.85;0.50;;;;;;;14.28;100.00;97246.66;4151986;28;20229;-46
2023/09/22 03:48:05;;;;;;;1.42;0.50;;;;;;;14.29;100.00;97237.28;4133118;28;20721;-45
2023/09/22 03:50:07;;;;;;;0.40;0.40;;;;;;;14.31;100.00;97239.72;4148321;28;20209;-45
2023/09/22 03:52:09;;;;;;;0.40;0.40;;;;;;;14.25;100.00;97243.69;4133636;28;20213;-45
2023/09/22 03:54:11;;;;;;;0.47;0.47;;;;;;;14.33;100.00;97243.81;4148901;28;20252;-44
2023/09/22 03:56:12;;;;;;;0.52;0.50;;;;;;;14.31;100.00;97240.53;4134223;28;20248;-46
2023/09/22 03:58:16;;;;;;;0.98;0.57;;;;;;;14.31;100.00;97226.75;4133222;28;20289;-45
2023/09/22 04:00:18;;;;;;;0.65;0.57;;;;;;;14.27;100.00;97222.19;4146801;28;20257;-45
2023/09/22 04:02:20;;;;;;;0.50;0.50;;;;;;;14.26;100.00;97215.88;4147915;28;20216;-45
2023/09/22 04:04:22;;;;;;;0.40;0.40;;;;;;;14.27;100.00;97212.00;4129615;28;20231;-45
2023/09/22 04:06:24;;;;;;;0.70;0.70;;;;;;;14.29;100.00;97204.25;4131916;28;20616;-45
2023/09/22 04:08:26;;;;;;;0.52;0.50;;;;;;;14.31;100.00;97202.00;4135376;28;20248;-45
2023/09/22 04:10:27;;;;;;;0.52;0.52;;;;;;;14.30;100.00;97205.88;4147259;28;20210;-46
2023/09/22 04:12:30;;;;;;;0.45;0.45;;;;;;;14.36;100.00;97207.41;4135645;28;20220;-45
2023/09/22 04:14:33;;;;;;;1.65;0.47;;;;;;;14.33;100.00;97223.72;4148569;28;20235;-45
2023/09/22 04:16:35;;;;;;;0.47;0.47;;;;;;;14.29;100.00;97218.00;4133905;28;20202;-45
2023/09/22 04:18:37;;;;;;;0.35;0.35;;;;;;;14.38;100.00;97229.13;4150483;28;20915;-45
2023/09/22 04:20:43;;;;;;;0.40;0.40;;;;;;;14.33;100.00;97238.31;4134389;28;20256;-45
2023/09/22 04:22:45;;;;;;;0.45;0.40;;;;;;;14.29;100.00;97231.75;4134789;28;20300;-45
2023/09/22 04:24:49;;;;;;;0.57;0.57;;;;;;;14.35;100.00;97236.06;4133422;28;20690;-46
2023/09/22 04:26:52;;;;;;;0.22;0.22;;;;;;;14.38;100.00;97240.94;4131756;28;20323;-45
2023/09/22 04:28:55;;;;;;;0.40;0.40;;;;;;;14.31;100.00;97251.53;4149587;28;20426;-45
2023/09/22 04:31:00;;;;;;;0.65;0.50;;;;;;;14.30;100.00;97251.84;4135494;28;20708;-46
2023/09/22 04:33:02;;;;;;;0.55;0.55;;;;;;;14.30;100.00;97247.16;4133332;28;20229;-46
2023/09/22 04:35:09;;;;;;;0.40;0.40;;;;;;;14.41;100.00;97243.09;4149087;28;20248;-45
2023/09/22 04:37:10;;;;;;;0.68;0.52;;;;;;;14.38;100.00;97248.38;4132714;28;20225;-45
2023/09/22 04:39:14;;;;;;;0.88;0.57;;;;;;;14.29;100.00;97237.28;4148924;28;20664;-45
2023/09/22 04:41:19;;;;;;;0.40;0.40;;;;;;;14.36;100.00;97245.94;4122598;28;20214;-45
2023/09/22 04:43:21;;;;;;;0.30;0.30;;;;;;;14.37;100.00;97250.31;4135936;28;20355;-45
2023/09/22 04:45:23;;;;;;;0.50;0.50;;;;;;;14.42;100.00;97241.97;4119093;28;20230;-45
2023/09/22 04:47:25;;;;;;;6.93;0.50;;;;;;;14.37;100.00;97244.00;4125120;28;20308;-46
2023/09/22 04:49:27;;;;;;;0.80;0.47;;;;;;;14.40;100.00;97249.72;4109293;28;20662;-46
2023/09/22 04:51:28;;;;;;;0.30;0.30;;;;;;;14.41;100.00;97245.00;4132528;28;20291;-47
2023/09/22 04:53:31;;;;;;;0.40;0.40;;;;;;;14.46;100.00;97240.25;4102211;28;20218;-45
2023/09/22 04:55:35;;;;;;;0.57;0.57;;;;;;;14.42;100.00;97228.19;4119616;28;20241;-46
2023/09/22 04:57:38;;;;;;;0.40;0.40;;;;;;;14.44;100.00;97238.91;4117851;28;20703;-45
2023/09/22 04:59:40;;;;;;;0.57;0.57;;;;;;;14.40;100.00;97238.72;4116374;28;20693;-46
2023/09/22 05:01:42;;;;;;;1.23;0.63;;;;;;;14.44;100.00;97236.97;4121981;28;20212;-44
2023/09/22 05:03:45;;;;;;;0.50;0.50;;;;;;;14.34;100.00;97237.19;4116071;28;20214;-45
2023/09/22 05:05:48;;;;;;;0.52;0.52;;;;;;;14.42;100.00;97241.16;4116799;28;20260;-45
2023/09/22 05:07:50;;;;;;;0.30;0.30;;;;;;;14.36;100.00;97242.38;4147109;28;20205;-44
2023/09/22 05:09:53;;;;;;;0.50;0.50;;;;;;;14.43;100.00;97253.81;4119215;28;20201;-44
2023/09/22 05:11:55;;;;;;;0.80;0.65;;;;;;;14.33;100.00;97249.31;4135103;28;20252;-45
2023/09/22 05:13:56;;;;;;;0.40;0.40;;;;;;;14.38;100.00;97273.97;4119158;28;20233;-45
2023/09/22 05:16:12;;;;;;;0.30;0.30;;;;;;;14.41;100.00;97278.88;4137198;28;20225;-45
2023/09/22 05:18:14;;;;;;;0.30;0.30;;;;;;;14.41;100.00;97272.53;4146648;28;20300;-44
2023/09/22 05:20:17;;;;;;;0.40;0.40;;;;;;;14.42;100.00;97272.25;4117698;28;20241;-45
2023/09/22 05:22:20;;;;;;;0.88;0.50;;;;;;;14.36;100.00;97267.94;4124675;28;20206;-45
2023/09/22 05:24:22;;;;;;;0.28;0.28;;;;;;;14.37;100.00;97266.03;4133354;28;20209;-45
2023/09/22 05:26:25;;;;;;;1.13;0.68;;;;;;;14.42;100.00;97272.25;4134044;28;20240;-45
2023/09/22 05:28:27;;;;;;;0.40;0.40;;;;;;;14.42;100.00;97291.50;4123532;28;20209;-45
2023/09/22 05:30:29;;;;;;;0.40;0.40;;;;;;;14.40;100.00;97293.75;4153505;28;20235;-44
2023/09/22 05:32:31;;;;;;;0.50;0.50;;;;;;;14.44;100.00;97299.47;4125964;28;20320;-44
2023/09/22 05:34:33;;;;;;;0.40;0.40;;;;;;;14.40;100.00;97302.00;4130285;28;20233;-45
2023/09/22 05:36:35;;;;;;;0.43;0.40;;;;;;;14.34;100.00;97299.66;4121365;28;20234;-44
2023/09/22 05:38:37;;;;;;;0.50;0.50;;;;;;;14.34;100.00;97294.13;4135411;28;20214;-44
2023/09/22 05:40:39;;;;;;;0.40;0.40;;;;;;;14.38;100.00;97295.97;4144210;28;20218;-44
2023/09/22 05:42:42;;;;;;;0.30;0.30;;;;;;;14.38;100.00;97295.97;4138631;28;20220;-44
2023/09/22 05:44:44;;;;;;;0.40;0.40;;;;;;;14.41;100.00;97291.81;4146511;28;20639;-45
2023/09/22 05:46:49;;;;;;;0.43;0.43;;;;;;;14.46;100.00;97295.28;4137648;28;20230;-45
2023/09/22 05:48:57;;;;;;;0.63;0.40;;;;;;;14.39;100.00;97297.63;4153898;28;20205;-44
2023/09/22 05:51:00;;;;;;;0.40;0.40;;;;;;;14.37;100.00;97305.34;4155110;28;20240;-44
2023/09/22 05:53:07;;;;;;;1.08;0.52;;;;;;;14.34;100.00;97314.22;4151939;28;20219;-45
2023/09/22 05:55:10;;;;;;;0.40;0.40;;;;;;;14.34;100.00;97338.19;4135220;28;20253;-44
2023/09/22 05:57:12;;;;;;;0.55;0.55;;;;;;;14.30;100.00;97359.97;4133731;28;20213;-44
2023/09/22 05:59:14;;;;;;;0.73;0.60;;;;;;;14.29;100.00;97357.56;4148275;28;20295;-44
2023/09/22 06:01:16;;;;;;;0.50;0.50;;;;;;;14.30;100.00;97343.47;4152428;28;20206;-44
2023/09/22 06:03:19;;;;;;;0.50;0.50;;;;;;;14.28;100.00;97345.72;4131736;28;20213;-45
2023/09/22 06:05:24;;;;;;;2.15;0.45;;;;;;;14.27;100.00;97344.09;4137080;28;20233;-45
2023/09/22 06:07:27;;;;;;;0.75;0.75;;;;;;;14.28;100.00;97342.97;4138079;28;20313;-45
2023/09/22 06:09:31;;;;;;;0.30;0.30;;;;;;;14.30;100.00;97334.41;4137732;28;20309;-44
2023/09/22 06:11:33;;;;;;;0.80;0.80;;;;;;;14.30;100.00;97331.66;4140244;28;20209;-45
2023/09/22 06:13:35;;;;;;;0.60;0.60;;;;;;;14.29;100.00;97341.84;4136236;28;20209;-44
2023/09/22 06:15:37;;;;;;;0.60;0.60;;;;;;;14.29;100.00;97346.53;4153711;28;20743;-45
2023/09/22 06:17:39;;;;;;;0.40;0.40;;;;;;;14.28;100.00;97353.13;4145124;28;20244;-46
2023/09/22 06:19:41;;;;;;;0.40;0.40;;;;;;;14.31;100.00;97349.81;4145071;28;20308;-44
2023/09/22 06:21:43;;;;;;;0.50;0.50;;;;;;;14.33;100.00;97348.38;4155445;28;20300;-45
2023/09/22 06:23:46;;;;;;;0.50;0.50;;;;;;;14.33;100.00;97342.88;4155254;28;20321;-45
2023/09/22 06:25:48;;;;;;;0.82;0.60;;;;;;;14.33;100.00;97348.38;4128953;28;20273;-45
2023/09/22 06:27:52;;;;;;;0.40;0.40;;;;;;;14.36;100.00;97356.03;4148541;28;20290;-44
2023/09/22 06:29:54;;;;;;;0.40;0.40;;;;;;;14.32;100.00;97352.25;4136986;28;20263;-45
2023/09/22 06:31:56;;;;;;;1.40;0.65;;;;;;;14.44;100.00;97355.31;4141456;28;20210;-45
2023/09/22 06:33:59;;;;;;;0.95;0.65;;;;;;;14.38;100.00;97355.72;4138386;28;20217;-45
2023/09/22 06:36:03;;;;;;;0.47;0.45;;;;;;;14.39;100.00;97352.69;4150766;28;20228;-44
2023/09/22 06:38:07;;;;;;;0.43;0.43;;;;;;;14.35;100.00;97365.41;4152714;28;20205;-44
2023/09/22 06:40:16;;;;;;;0.60;0.60;;;;;;;14.42;100.00;97368.56;4123197;28;20225;-44
2023/09/22 06:42:18;;;;;;;1.20;0.57;;;;;;;14.46;100.00;97375.13;4135430;28;20213;-45
2023/09/22 06:44:21;;;;;;;0.52;0.52;;;;;;;14.48;100.00;97375.63;4124160;28;20213;-44
2023/09/22 06:46:22;;;;;;;0.45;0.45;;;;;;;14.49;100.00;97382.75;4137110;28;20211;-46
2023/09/22 06:48:27;;;;;;;1.65;0.40;;;;;;;14.48;100.00;97378.38;4138130;28;20205;-44
2023/09/22 06:50:43;;;;;;;0.95;0.73;;;;;;;14.52;100.00;97371.16;4137195;28;20607;-45
2023/09/22 06:52:49;;;;;;;0.50;0.50;;;;;;;14.62;100.00;97373.72;4138703;28;20624;-45
2023/09/22 06:54:51;;;;;;;0.30;0.30;;;;;;;14.63;100.00;97380.06;4123032;28;20234;-44
2023/09/22 06:56:54;;;;;;;0.40;0.40;;;;;;;14.66;100.00;97385.75;4134933;28;20790;-46
2023/09/22 06:58:56;;;;;;;0.82;0.50;;;;;;;14.70;100.00;97386.78;4119164;28;20716;-46
2023/09/22 07:01:12;;;;;;;0.20;0.20;;;;;;;14.77;100.00;97389.94;4123004;28;20206;-46
2023/09/22 07:03:14;;;;;;;0.20;0.20;;;;;;;14.82;100.00;97378.03;4138107;28;20241;-46
2023/09/22 07:05:17;;;;;;;0.55;0.40;;;;;;;14.80;100.00;97377.50;4136599;28;20256;-45
2023/09/22 07:07:19;;;;;;;0.40;0.40;;;;;;;14.81;100.00;97382.72;4128882;28;20852;-46
2023/09/22 07:09:21;;;;;;;0.30;0.30;;;;;;;14.92;100.00;97389.66;4119452;28;20214;-47
2023/09/22 07:11:22;;;;;;;0.47;0.47;;;;;;;14.95;100.00;97369.75;4137702;28;20255;-46
2023/09/22 07:13:24;;;;;;;0.40;0.40;;;;;;;14.97;100.00;97374.97;4135517;28;20213;-45
2023/09/22 07:15:26;;;;;;;2.67;0.90;;;;;;;15.02;100.00;97375.69;4135407;28;20629;-45
2023/09/22 07:17:28;;;;;;;0.55;0.55;;;;;;;15.07;100.00;97385.78;4136179;28;20220;-45
2023/09/22 07:19:31;;;;;;;0.60;0.50;;;;;;;14.95;100.00;97378.03;4133892;28;20214;-45
2023/09/22 07:21:34;;;;;;;0.52;0.40;;;;;;;14.97;100.00;97386.00;4132147;28;20566;-45
2023/09/22 07:23:37;;;;;;;0.40;0.40;;;;;;;15.18;100.00;97393.56;4117360;28;20225;-45
2023/09/22 07:25:38;;;;;;;0.40;0.40;;;;;;;15.34;100.00;97386.63;4119990;28;20696;-45
2023/09/22 07:27:43;;;;;;;0.40;0.40;;;;;;;15.55;100.00;97382.31;4122155;28;20285;-45
2023/09/22 07:29:45;;;;;;;0.40;0.40;;;;;;;15.63;100.00;97389.84;4121039;28;20261;-45
2023/09/22 07:31:46;;;;;;;0.43;0.43;;;;;;;15.68;100.00;97394.41;4120046;28;20226;-46
2023/09/22 07:33:48;;;;;;;0.30;0.30;;;;;;;15.40;99.79;97401.94;4137411;28;20222;-46
2023/09/22 07:35:50;;;;;;;0.35;0.35;;;;;;;15.24;99.82;97394.25;4135387;28;20225;-46
2023/09/22 07:37:52;;;;;;;0.40;0.40;;;;;;;15.34;99.20;97403.16;4133308;28;20301;-46
2023/09/22 07:39:54;;;;;;;0.30;0.30;;;;;;;15.24;100.00;97419.88;4128130;28;20320;-45
2023/09/22 07:41:56;;;;;;;0.40;0.30;;;;;;;15.07;97.38;97403.16;4153970;28;20288;-45
2023/09/22 07:43:57;;;;;;;0.75;0.40;;;;;;;15.11;98.95;97404.16;4139979;28;20205;-45
2023/09/22 07:46:03;;;;;;;0.40;0.30;;;;;;;15.28;98.02;97398.84;4134270;28;20260;-47
2023/09/22 07:48:05;;;;;;;0.52;0.52;;;;;;;15.11;96.79;97403.34;4149991;28;20257;-44
2023/09/22 07:50:08;;;;;;;0.68;0.68;;;;;;;15.56;96.48;97406.00;4149978;28;20240;-44
2023/09/22 07:52:10;;;;;;;0.68;0.40;;;;;;;16.02;91.84;97405.78;4138853;28;20229;-44
2023/09/22 07:54:12;;;;;;;5.28;0.73;;;;;;;16.28;91.36;97402.09;4149090;28;20232;-45
2023/09/22 07:56:18;;;;;;;1.17;0.40;;;;;;;16.49;90.29;97402.44;4151564;28;20205;-46
2023/09/22 07:58:20;;;;;;;0.20;0.20;;;;;;;16.54;89.32;97405.88;4149605;28;20204;-45
2023/09/22 08:00:26;;;;;;;0.40;0.40;;;;;;;16.29;89.01;97409.25;4151248;28;20202;-45
2023/09/22 08:02:28;;;;;;;0.30;0.30;;;;;;;16.05;86.87;97407.91;4148247;28;20211;-45
2023/09/22 08:04:30;;;;;;;0.38;0.32;;;;;;;15.88;89.45;97414.09;4146079;28;20242;-46
2023/09/22 08:06:33;;;;;;;0.30;0.30;;;;;;;15.75;90.38;97425.97;4148736;28;20606;-45
2023/09/22 08:08:36;;;;;;;3.45;0.30;;;;;;;15.58;93.70;97441.53;4149374;28;20228;-46
2023/09/22 08:10:40;;;;;;;0.40;0.40;;;;;;;15.49;91.25;97437.88;4135062;28;20229;-44
2023/09/22 08:12:43;;;;;;;0.50;0.50;;;;;;;15.52;91.44;97424.28;4135583;28;20206;-44
2023/09/22 08:14:46;;;;;;;0.30;0.30;;;;;;;15.45;92.69;97426.66;4134728;28;20321;-45
2023/09/22 08:17:07;;;;;;;0.32;0.32;;;;;;;15.46;92.12;97433.78;4150054;28;20296;-46
2023/09/22 08:19:11;;;;;;;0.30;0.30;;;;;;;15.39;93.33;97438.91;4133544;28;20245;-46
2023/09/22 08:21:13;;;;;;;1.85;1.08;;;;;;;15.26;93.21;97442.44;4132147;28;20210;-47
2023/09/22 08:23:15;;;;;;;0.28;0.28;;;;;;;15.19;93.30;97439.28;4149468;28;20580;-44
2023/09/22 08:25:19;;;;;;;0.30;0.30;;;;;;;15.09;92.64;97444.19;4138219;28;20304;-44
2023/09/22 08:27:21;;;;;;;0.30;0.30;;;;;;;14.99;92.62;97436.91;4132654;28;20693;-45
2023/09/22 08:29:24;;;;;;;0.47;0.30;;;;;;;14.86;93.27;97434.13;4134355;28;20290;-46
2023/09/22 08:31:26;;;;;;;4.22;0.80;;;;;;;14.87;92.51;97433.00;4132858;28;20236;-45
2023/09/22 08:33:29;;;;;;;0.43;0.43;;;;;;;14.89;92.12;97437.09;4146107;28;20572;-45
2023/09/22 08:35:31;;;;;;;0.32;0.32;;;;;;;15.00;91.88;97430.28;4131682;28;20593;-45
2023/09/22 08:37:36;;;;;;;2.08;0.45;;;;;;;14.96;90.80;97437.50;4132878;28;20205;-44
2023/09/22 08:39:38;;;;;;;0.30;0.30;;;;;;;15.14;91.82;97431.09;4135861;28;20217;-44
2023/09/22 08:41:41;;;;;;;0.50;0.50;;;;;;;15.26;90.57;97431.41;4137143;28;20205;-45
2023/09/22 08:43:45;;;;;;;2.15;0.47;;;;;;;15.96;89.56;97431.88;4103646;28;20285;-45
2023/09/22 08:45:47;;;;;;;0.90;0.45;;;;;;;16.03;88.60;97435.81;4115173;28;20225;-47
2023/09/22 08:47:50;;;;;;;0.95;0.43;;;;;;;15.92;87.72;97428.91;4104769;28;20333;-44
2023/09/22 08:49:52;;;;;;;0.40;0.40;;;;;;;15.95;87.75;97431.03;4136330;28;20567;-44
2023/09/22 08:51:55;;;;;;;0.52;0.35;;;;;;;16.02;86.56;97436.16;4133340;28;20276;-44
2023/09/22 08:53:57;;;;;;;0.30;0.30;;;;;;;16.23;87.91;97429.81;4126972;28;20756;-44
2023/09/22 08:55:59;;;;;;;0.45;0.45;;;;;;;16.46;87.33;97442.56;4110730;28;20233;-45
2023/09/22 08:58:01;;;;;;;0.32;0.32;;;;;;;16.41;85.89;97439.06;4127728;28;20626;-45
2023/09/22 09:00:12;;;;;;;0.98;0.95;;;;;;;16.31;84.97;97442.91;4136312;28;20235;-45
2023/09/22 09:02:14;;;;;;;0.32;0.32;;;;;;;16.15;83.45;97447.13;4134566;28;20593;-45
2023/09/22 09:04:32;;;;;;;0.32;0.32;;;;;;;16.23;83.37;97448.34;4138744;28;20208;-44
2023/09/22 09:06:44;;;;;;;3.10;0.30;;;;;;;15.86;82.62;97441.19;4134980;28;20206;-45
2023/09/22 09:09:12;;;;;;;5.68;1.30;;;;;;;15.92;84.04;97441.88;4133869;28;20311;-47
2023/09/22 09:11:15;;;;;;;0.22;0.22;;;;;;;16.29;86.26;97444.34;4136510;28;20601;-46
2023/09/22 09:13:19;;;;;;;0.80;0.45;;;;;;;16.59;85.00;97441.66;4130085;28;21218;-45
2023/09/22 09:15:27;;;;;;;0.80;0.30;;;;;;;16.27;83.02;97449.34;4132718;28;20229;-46
2023/09/22 09:17:29;;;;;;;0.93;0.43;;;;;;;16.57;84.51;97443.91;4142677;28;20209;-45
2023/09/22 09:19:33;;;;;;;0.20;0.20;;;;;;;16.58;81.73;97448.34;4117474;28;20214;-46
2023/09/22 09:21:35;;;;;;;1.17;0.57;;;;;;;16.61;81.30;97436.63;4141003;28;20214;-47
2023/09/22 09:23:52;;;;;;;1.23;1.17;;;;;;;16.69;82.14;97444.16;4137672;28;20202;-45
2023/09/22 09:25:54;;;;;;;3.22;0.75;;;;;;;16.82;83.18;97434.97;4128340;28;20262;-44
2023/09/22 09:28:02;;;;;;;0.40;0.40;;;;;;;17.04;83.45;97444.06;4141725;28;20229;-45
2023/09/22 09:30:11;;;;;;;2.42;0.57;;;;;;;17.07;80.48;97442.59;4136726;28;20221;-46
2023/09/22 09:32:24;;;;;;;3.00;0.57;;;;;;;16.99;79.25;97440.63;4137469;28;20292;-45
2023/09/22 09:34:38;;;;;;;1.55;0.40;;;;;;;16.82;78.67;97440.50;4138327;28;20255;-44